sensor_id;sensor_type;location;lat;lon;timestamp;temperature;humidity
17284;DHT22;8760;52.248;20.952;2023-03-01T00:01:37;-1.40;1.00
17284;DHT22;8760;52.248;20.952;2023-03-01T00:04:04;-1.40;99.90
17284;DHT22;8760;52.248;20.952;2023-03-01T00:06:31;-1.40;99.90
17284;DHT22;8760;52.248;20.952;2023-03-01T00:08:58;-1.30;99.90
17284;DHT22;8760;52.248;20.952;2023-03-01T00:11:27;-1.30;99.90
17284;DHT22;8760;52.248;20.952;2023-03-01T00:13:56;-1.40;1.00
17284;DHT22;8760;52.248;20.952;2023-03-01T00:16:26;-1.40;1.00
17284;DHT22;8760;52.248;20.952;2023-03-01T00:18:54;-1.30;99.90
17284;DHT22;8760;52.248;20.952;2023-03-01T00:21:21;-1.40;99.90
17284;DHT22;8760;52.248;20.952;2023-03-01T00:23:49;-1.30;99.90
17284;DHT22;8760;52.248;20.952;2023-03-01T00:26:18;-1.30;99.90
17284;DHT22;8760;52.248;20.952;2023-03-01T00:28:46;-1.30;99.90
17284;DHT22;8760;52.248;20.952;2023-03-01T00:31:14;-1.30;99.90
17284;DHT22;8760;52.248;20.952;2023-03-01T00:33:43;-1.30;99.90
17284;DHT22;8760;52.248;20.952;2023-03-01T00:36:11;-1.20;99.90
17284;DHT22;8760;52.248;20.952;2023-03-01T00:38:41;-1.10;99.90
17284;DHT22;8760;52.248;20.952;2023-03-01T00:41:10;-1.20;51.90
17284;DHT22;8760;52.248;20.952;2023-03-01T00:43:37;-1.20;99.90
17284;DHT22;8760;52.248;20.952;2023-03-01T00:46:06;-1.20;93.20
17284;DHT22;8760;52.248;20.952;2023-03-01T00:48:34;-1.20;99.90
17284;DHT22;8760;52.248;20.952;2023-03-01T00:51:08;-1.20;1.00
17284;DHT22;8760;52.248;20.952;2023-03-01T00:53:35;-1.20;99.90
17284;DHT22;8760;52.248;20.952;2023-03-01T00:56:03;-1.20;99.90
17284;DHT22;8760;52.248;20.952;2023-03-01T00:58:30;-1.20;77.40
17284;DHT22;8760;52.248;20.952;2023-03-01T01:00:57;-1.30;32.10
17284;DHT22;8760;52.248;20.952;2023-03-01T01:03:24;-1.30;99.90
17284;DHT22;8760;52.248;20.952;2023-03-01T01:05:51;-1.30;99.90
17284;DHT22;8760;52.248;20.952;2023-03-01T01:08:20;-1.30;99.90
17284;DHT22;8760;52.248;20.952;2023-03-01T01:10:47;-1.30;99.90
17284;DHT22;8760;52.248;20.952;2023-03-01T01:13:14;-1.30;99.90
17284;DHT22;8760;52.248;20.952;2023-03-01T01:15:41;-1.30;99.90
17284;DHT22;8760;52.248;20.952;2023-03-01T01:18:08;-1.40;99.90
17284;DHT22;8760;52.248;20.952;2023-03-01T01:20:35;-1.40;99.90
17284;DHT22;8760;52.248;20.952;2023-03-01T01:23:05;-1.40;99.90
17284;DHT22;8760;52.248;20.952;2023-03-01T01:25:35;-1.40;99.90
17284;DHT22;8760;52.248;20.952;2023-03-01T01:28:03;-1.40;99.90
17284;DHT22;8760;52.248;20.952;2023-03-01T01:30:30;-1.50;99.90
17284;DHT22;8760;52.248;20.952;2023-03-01T01:32:57;-1.60;99.90
17284;DHT22;8760;52.248;20.952;2023-03-01T01:35:24;-1.50;99.90
17284;DHT22;8760;52.248;20.952;2023-03-01T01:37:51;-1.50;99.90
17284;DHT22;8760;52.248;20.952;2023-03-01T01:40:18;-1.50;99.90
17284;DHT22;8760;52.248;20.952;2023-03-01T01:42:46;-1.50;99.90
17284;DHT22;8760;52.248;20.952;2023-03-01T01:45:31;-1.50;99.90
17284;DHT22;8760;52.248;20.952;2023-03-01T01:48:02;-1.60;1.00
17284;DHT22;8760;52.248;20.952;2023-03-01T01:50:32;-1.60;1.00
17284;DHT22;8760;52.248;20.952;2023-03-01T01:53:06;-1.60;1.00
17284;DHT22;8760;52.248;20.952;2023-03-01T01:55:36;-1.50;1.00
17284;DHT22;8760;52.248;20.952;2023-03-01T01:58:08;-1.50;1.00
17284;DHT22;8760;52.248;20.952;2023-03-01T02:00:37;-1.60;1.00
17284;DHT22;8760;52.248;20.952;2023-03-01T02:03:07;-1.60;1.00
17284;DHT22;8760;52.248;20.952;2023-03-01T02:05:40;-1.60;1.00
17284;DHT22;8760;52.248;20.952;2023-03-01T02:08:11;-1.70;1.00
17284;DHT22;8760;52.248;20.952;2023-03-01T02:10:39;-1.60;1.00
17284;DHT22;8760;52.248;20.952;2023-03-01T02:13:09;-1.60;1.00
17284;DHT22;8760;52.248;20.952;2023-03-01T02:15:38;-1.60;1.00
17284;DHT22;8760;52.248;20.952;2023-03-01T02:18:06;-1.60;1.00
17284;DHT22;8760;52.248;20.952;2023-03-01T02:20:37;-1.70;1.00
17284;DHT22;8760;52.248;20.952;2023-03-01T02:23:07;-1.80;1.00
17284;DHT22;8760;52.248;20.952;2023-03-01T02:25:40;-1.70;1.00
17284;DHT22;8760;52.248;20.952;2023-03-01T02:28:29;-1.60;1.00
17284;DHT22;8760;52.248;20.952;2023-03-01T02:30:57;-1.60;1.00
17284;DHT22;8760;52.248;20.952;2023-03-01T02:33:41;-1.70;1.00
17284;DHT22;8760;52.248;20.952;2023-03-01T02:36:11;-1.70;1.00
17284;DHT22;8760;52.248;20.952;2023-03-01T02:38:39;-1.70;1.00
17284;DHT22;8760;52.248;20.952;2023-03-01T02:41:07;-1.70;1.00
17284;DHT22;8760;52.248;20.952;2023-03-01T02:43:36;-1.70;1.00
17284;DHT22;8760;52.248;20.952;2023-03-01T02:46:05;-1.60;1.00
17284;DHT22;8760;52.248;20.952;2023-03-01T02:48:40;-1.60;1.00
17284;DHT22;8760;52.248;20.952;2023-03-01T02:51:14;-1.70;1.00
17284;DHT22;8760;52.248;20.952;2023-03-01T02:53:53;-1.70;1.00
17284;DHT22;8760;52.248;20.952;2023-03-01T02:56:23;-1.70;1.00
17284;DHT22;8760;52.248;20.952;2023-03-01T02:58:51;-1.70;1.00
17284;DHT22;8760;52.248;20.952;2023-03-01T03:01:19;-1.70;1.00
17284;DHT22;8760;52.248;20.952;2023-03-01T03:03:46;-1.70;1.00
17284;DHT22;8760;52.248;20.952;2023-03-01T03:06:13;-1.70;1.00
17284;DHT22;8760;52.248;20.952;2023-03-01T03:08:40;-1.60;1.00
17284;DHT22;8760;52.248;20.952;2023-03-01T03:11:07;-1.60;1.00
17284;DHT22;8760;52.248;20.952;2023-03-01T03:13:34;-1.60;1.00
17284;DHT22;8760;52.248;20.952;2023-03-01T03:16:02;-1.60;1.00
17284;DHT22;8760;52.248;20.952;2023-03-01T03:18:30;-1.60;1.00
17284;DHT22;8760;52.248;20.952;2023-03-01T03:20:57;-1.60;1.00
17284;DHT22;8760;52.248;20.952;2023-03-01T03:23:24;-1.60;1.00
17284;DHT22;8760;52.248;20.952;2023-03-01T03:25:51;-1.60;1.00
17284;DHT22;8760;52.248;20.952;2023-03-01T03:28:18;-1.60;99.90
17284;DHT22;8760;52.248;20.952;2023-03-01T03:30:45;-1.70;99.90
17284;DHT22;8760;52.248;20.952;2023-03-01T03:33:14;-1.70;99.90
17284;DHT22;8760;52.248;20.952;2023-03-01T03:35:42;-1.70;99.90
17284;DHT22;8760;52.248;20.952;2023-03-01T03:38:11;-1.70;99.90
17284;DHT22;8760;52.248;20.952;2023-03-01T03:40:44;-1.60;99.90
17284;DHT22;8760;52.248;20.952;2023-03-01T03:43:13;-1.60;99.90
17284;DHT22;8760;52.248;20.952;2023-03-01T03:45:40;-1.70;99.90
17284;DHT22;8760;52.248;20.952;2023-03-01T03:48:08;-1.70;99.90
17284;DHT22;8760;52.248;20.952;2023-03-01T03:50:37;-1.70;99.90
17284;DHT22;8760;52.248;20.952;2023-03-01T03:53:10;-1.70;1.00
17284;DHT22;8760;52.248;20.952;2023-03-01T03:55:37;-1.70;99.90
17284;DHT22;8760;52.248;20.952;2023-03-01T03:58:06;-1.70;99.90
17284;DHT22;8760;52.248;20.952;2023-03-01T04:00:34;-1.70;99.90
17284;DHT22;8760;52.248;20.952;2023-03-01T04:03:02;-1.70;99.90
17284;DHT22;8760;52.248;20.952;2023-03-01T04:05:30;-1.80;1.00
17284;DHT22;8760;52.248;20.952;2023-03-01T04:07:59;-1.80;1.00
17284;DHT22;8760;52.248;20.952;2023-03-01T04:10:30;-1.80;1.00
17284;DHT22;8760;52.248;20.952;2023-03-01T04:12:57;-1.80;1.00
17284;DHT22;8760;52.248;20.952;2023-03-01T04:15:25;-1.70;1.00
17284;DHT22;8760;52.248;20.952;2023-03-01T04:17:53;-1.70;99.90
17284;DHT22;8760;52.248;20.952;2023-03-01T04:20:23;-1.70;99.90
17284;DHT22;8760;52.248;20.952;2023-03-01T04:22:52;-1.70;99.90
17284;DHT22;8760;52.248;20.952;2023-03-01T04:25:20;-1.70;99.90
17284;DHT22;8760;52.248;20.952;2023-03-01T04:27:47;-1.80;99.90
17284;DHT22;8760;52.248;20.952;2023-03-01T04:30:14;-1.80;1.00
17284;DHT22;8760;52.248;20.952;2023-03-01T04:32:42;-1.80;1.00
17284;DHT22;8760;52.248;20.952;2023-03-01T04:35:09;-1.70;1.00
17284;DHT22;8760;52.248;20.952;2023-03-01T04:37:36;-1.70;99.90
17284;DHT22;8760;52.248;20.952;2023-03-01T04:40:03;-1.70;99.90
17284;DHT22;8760;52.248;20.952;2023-03-01T04:42:43;-1.70;99.90
17284;DHT22;8760;52.248;20.952;2023-03-01T04:45:11;-1.60;99.90
17284;DHT22;8760;52.248;20.952;2023-03-01T04:47:40;-1.70;99.90
17284;DHT22;8760;52.248;20.952;2023-03-01T04:50:08;-1.60;99.90
17284;DHT22;8760;52.248;20.952;2023-03-01T04:52:35;-1.60;99.90
17284;DHT22;8760;52.248;20.952;2023-03-01T04:55:02;-1.60;99.90
17284;DHT22;8760;52.248;20.952;2023-03-01T04:57:30;-1.60;99.90
17284;DHT22;8760;52.248;20.952;2023-03-01T04:59:59;-1.60;99.90
17284;DHT22;8760;52.248;20.952;2023-03-01T05:02:25;-1.60;99.90
17284;DHT22;8760;52.248;20.952;2023-03-01T05:04:52;-1.60;99.90
17284;DHT22;8760;52.248;20.952;2023-03-01T05:07:23;-1.60;99.90
17284;DHT22;8760;52.248;20.952;2023-03-01T05:09:50;-1.60;99.90
17284;DHT22;8760;52.248;20.952;2023-03-01T05:12:17;-1.60;99.90
17284;DHT22;8760;52.248;20.952;2023-03-01T05:14:44;-1.60;99.90
17284;DHT22;8760;52.248;20.952;2023-03-01T05:17:12;-1.50;99.90
17284;DHT22;8760;52.248;20.952;2023-03-01T05:19:39;-1.60;99.90
17284;DHT22;8760;52.248;20.952;2023-03-01T05:22:08;-1.60;99.90
17284;DHT22;8760;52.248;20.952;2023-03-01T05:24:35;-1.60;99.90
17284;DHT22;8760;52.248;20.952;2023-03-01T05:27:05;-1.60;99.90
17284;DHT22;8760;52.248;20.952;2023-03-01T05:29:32;-1.60;99.90
17284;DHT22;8760;52.248;20.952;2023-03-01T05:32:01;-1.60;99.90
17284;DHT22;8760;52.248;20.952;2023-03-01T05:34:32;-1.70;99.90
17284;DHT22;8760;52.248;20.952;2023-03-01T05:36:59;-1.70;99.90
17284;DHT22;8760;52.248;20.952;2023-03-01T05:39:28;-1.70;99.90
17284;DHT22;8760;52.248;20.952;2023-03-01T05:41:56;-1.70;1.00
17284;DHT22;8760;52.248;20.952;2023-03-01T05:44:24;-1.70;99.90
17284;DHT22;8760;52.248;20.952;2023-03-01T05:46:52;-1.70;99.90
17284;DHT22;8760;52.248;20.952;2023-03-01T05:49:19;-1.60;99.90
17284;DHT22;8760;52.248;20.952;2023-03-01T05:51:53;-1.50;99.90
17284;DHT22;8760;52.248;20.952;2023-03-01T05:54:21;-1.60;99.90
17284;DHT22;8760;52.248;20.952;2023-03-01T05:56:48;-1.50;99.90
17284;DHT22;8760;52.248;20.952;2023-03-01T05:59:15;-1.50;99.90
17284;DHT22;8760;52.248;20.952;2023-03-01T06:01:42;-1.50;99.90
17284;DHT22;8760;52.248;20.952;2023-03-01T06:04:09;-1.40;99.90
17284;DHT22;8760;52.248;20.952;2023-03-01T06:06:37;-1.30;99.90
17284;DHT22;8760;52.248;20.952;2023-03-01T06:09:06;-1.30;99.90
17284;DHT22;8760;52.248;20.952;2023-03-01T06:11:35;-1.30;99.90
17284;DHT22;8760;52.248;20.952;2023-03-01T06:14:02;-1.30;84.30
17284;DHT22;8760;52.248;20.952;2023-03-01T06:16:29;-1.20;6.40
17284;DHT22;8760;52.248;20.952;2023-03-01T06:18:56;-1.10;34.40
17284;DHT22;8760;52.248;20.952;2023-03-01T06:21:23;-1.10;1.00
17284;DHT22;8760;52.248;20.952;2023-03-01T06:23:50;-1.10;1.00
17284;DHT22;8760;52.248;20.952;2023-03-01T06:26:19;-1.00;1.00
17284;DHT22;8760;52.248;20.952;2023-03-01T06:28:46;-0.90;1.00
17284;DHT22;8760;52.248;20.952;2023-03-01T06:31:12;-0.90;99.90
17284;DHT22;8760;52.248;20.952;2023-03-01T06:33:39;-0.80;99.90
17284;DHT22;8760;52.248;20.952;2023-03-01T06:36:07;-0.80;1.00
17284;DHT22;8760;52.248;20.952;2023-03-01T06:38:35;-0.80;1.00
17284;DHT22;8760;52.248;20.952;2023-03-01T06:41:02;-0.70;1.00
17284;DHT22;8760;52.248;20.952;2023-03-01T06:43:30;-0.60;99.90
17284;DHT22;8760;52.248;20.952;2023-03-01T06:45:57;-0.60;1.00
17284;DHT22;8760;52.248;20.952;2023-03-01T06:48:24;-0.50;99.90
17284;DHT22;8760;52.248;20.952;2023-03-01T06:50:51;-0.40;12.50
17284;DHT22;8760;52.248;20.952;2023-03-01T06:53:18;-0.30;1.00
17284;DHT22;8760;52.248;20.952;2023-03-01T06:55:45;-0.20;1.00
17284;DHT22;8760;52.248;20.952;2023-03-01T06:58:12;-0.10;94.60
17284;DHT22;8760;52.248;20.952;2023-03-01T07:00:40;0.10;1.00
17284;DHT22;8760;52.248;20.952;2023-03-01T07:03:09;0.30;99.90
17284;DHT22;8760;52.248;20.952;2023-03-01T07:05:35;0.40;99.90
17284;DHT22;8760;52.248;20.952;2023-03-01T07:08:02;0.50;1.00
17284;DHT22;8760;52.248;20.952;2023-03-01T07:10:29;0.70;99.90
17284;DHT22;8760;52.248;20.952;2023-03-01T07:12:57;0.90;1.00
17284;DHT22;8760;52.248;20.952;2023-03-01T07:15:25;1.10;1.00
17284;DHT22;8760;52.248;20.952;2023-03-01T07:17:53;1.40;1.00
17284;DHT22;8760;52.248;20.952;2023-03-01T07:20:21;1.60;1.00
17284;DHT22;8760;52.248;20.952;2023-03-01T07:22:50;2.00;99.90
17284;DHT22;8760;52.248;20.952;2023-03-01T07:25:17;2.20;1.00
17284;DHT22;8760;52.248;20.952;2023-03-01T07:27:44;2.30;1.00
17284;DHT22;8760;52.248;20.952;2023-03-01T07:30:15;2.40;1.00
17284;DHT22;8760;52.248;20.952;2023-03-01T07:32:42;2.60;1.00
17284;DHT22;8760;52.248;20.952;2023-03-01T07:35:12;2.80;99.90
17284;DHT22;8760;52.248;20.952;2023-03-01T07:37:40;2.80;99.90
17284;DHT22;8760;52.248;20.952;2023-03-01T07:40:08;2.60;99.90
17284;DHT22;8760;52.248;20.952;2023-03-01T07:42:35;2.30;99.90
17284;DHT22;8760;52.248;20.952;2023-03-01T07:45:03;2.10;1.00
17284;DHT22;8760;52.248;20.952;2023-03-01T07:47:30;2.30;1.00
17284;DHT22;8760;52.248;20.952;2023-03-01T07:49:57;2.70;1.00
17284;DHT22;8760;52.248;20.952;2023-03-01T07:52:25;2.70;99.90
17284;DHT22;8760;52.248;20.952;2023-03-01T07:54:52;2.70;99.90
17284;DHT22;8760;52.248;20.952;2023-03-01T07:57:19;2.70;99.90
17284;DHT22;8760;52.248;20.952;2023-03-01T07:59:46;3.00;99.90
17284;DHT22;8760;52.248;20.952;2023-03-01T08:02:13;3.50;99.90
17284;DHT22;8760;52.248;20.952;2023-03-01T08:04:40;4.00;39.80
17284;DHT22;8760;52.248;20.952;2023-03-01T08:07:07;4.60;1.00
17284;DHT22;8760;52.248;20.952;2023-03-01T08:09:36;5.00;1.00
17284;DHT22;8760;52.248;20.952;2023-03-01T08:12:04;5.50;1.00
17284;DHT22;8760;52.248;20.952;2023-03-01T08:14:31;6.20;1.00
17284;DHT22;8760;52.248;20.952;2023-03-01T08:16:58;6.50;1.00
17284;DHT22;8760;52.248;20.952;2023-03-01T08:19:25;6.40;99.90
17284;DHT22;8760;52.248;20.952;2023-03-01T08:21:53;6.40;99.90
17284;DHT22;8760;52.248;20.952;2023-03-01T08:24:20;6.50;99.90
17284;DHT22;8760;52.248;20.952;2023-03-01T08:26:50;6.60;99.90
17284;DHT22;8760;52.248;20.952;2023-03-01T08:29:16;6.70;99.90
17284;DHT22;8760;52.248;20.952;2023-03-01T08:31:43;6.70;99.90
17284;DHT22;8760;52.248;20.952;2023-03-01T08:34:13;6.80;99.90
17284;DHT22;8760;52.248;20.952;2023-03-01T08:36:42;6.70;99.90
17284;DHT22;8760;52.248;20.952;2023-03-01T08:39:11;7.00;99.90
17284;DHT22;8760;52.248;20.952;2023-03-01T08:41:38;7.20;99.90
17284;DHT22;8760;52.248;20.952;2023-03-01T08:44:08;7.40;99.90
17284;DHT22;8760;52.248;20.952;2023-03-01T08:46:37;7.30;99.90
17284;DHT22;8760;52.248;20.952;2023-03-01T08:49:06;7.60;99.90
17284;DHT22;8760;52.248;20.952;2023-03-01T08:51:33;7.70;99.90
17284;DHT22;8760;52.248;20.952;2023-03-01T08:54:02;8.00;99.90
17284;DHT22;8760;52.248;20.952;2023-03-01T08:56:29;8.40;99.90
17284;DHT22;8760;52.248;20.952;2023-03-01T08:58:57;8.60;99.90
17284;DHT22;8760;52.248;20.952;2023-03-01T09:01:25;9.00;99.90
17284;DHT22;8760;52.248;20.952;2023-03-01T09:03:52;9.30;99.90
17284;DHT22;8760;52.248;20.952;2023-03-01T09:06:19;9.20;99.90
17284;DHT22;8760;52.248;20.952;2023-03-01T09:08:47;8.70;99.90
17284;DHT22;8760;52.248;20.952;2023-03-01T09:11:17;8.70;99.90
17284;DHT22;8760;52.248;20.952;2023-03-01T09:13:45;9.00;99.90
17284;DHT22;8760;52.248;20.952;2023-03-01T09:16:13;9.10;99.90
17284;DHT22;8760;52.248;20.952;2023-03-01T09:18:42;9.10;99.90
17284;DHT22;8760;52.248;20.952;2023-03-01T09:21:11;9.50;99.90
17284;DHT22;8760;52.248;20.952;2023-03-01T09:23:40;9.80;99.90
17284;DHT22;8760;52.248;20.952;2023-03-01T09:26:08;10.00;99.90
17284;DHT22;8760;52.248;20.952;2023-03-01T09:28:35;10.30;99.90
17284;DHT22;8760;52.248;20.952;2023-03-01T09:31:03;10.50;99.90
17284;DHT22;8760;52.248;20.952;2023-03-01T09:33:31;10.00;99.90
17284;DHT22;8760;52.248;20.952;2023-03-01T09:36:01;9.40;99.90
17284;DHT22;8760;52.248;20.952;2023-03-01T09:38:28;9.10;99.90
17284;DHT22;8760;52.248;20.952;2023-03-01T09:40:55;9.10;99.90
17284;DHT22;8760;52.248;20.952;2023-03-01T09:43:27;9.10;99.90
17284;DHT22;8760;52.248;20.952;2023-03-01T09:46:00;9.10;99.90
17284;DHT22;8760;52.248;20.952;2023-03-01T09:48:36;9.20;99.90
17284;DHT22;8760;52.248;20.952;2023-03-01T09:51:07;9.40;99.90
17284;DHT22;8760;52.248;20.952;2023-03-01T09:53:35;9.40;99.90
17284;DHT22;8760;52.248;20.952;2023-03-01T09:56:05;9.70;99.90
17284;DHT22;8760;52.248;20.952;2023-03-01T09:58:41;10.10;99.90
17284;DHT22;8760;52.248;20.952;2023-03-01T10:01:28;10.60;99.90
17284;DHT22;8760;52.248;20.952;2023-03-01T10:04:24;11.00;99.90
17284;DHT22;8760;52.248;20.952;2023-03-01T10:07:03;11.40;99.90
17284;DHT22;8760;52.248;20.952;2023-03-01T10:09:34;11.30;99.90
17284;DHT22;8760;52.248;20.952;2023-03-01T10:12:07;11.50;99.90
17284;DHT22;8760;52.248;20.952;2023-03-01T10:14:37;11.70;99.90
17284;DHT22;8760;52.248;20.952;2023-03-01T10:17:09;11.60;99.90
17284;DHT22;8760;52.248;20.952;2023-03-01T10:19:42;11.90;99.90
17284;DHT22;8760;52.248;20.952;2023-03-01T10:22:15;12.20;99.90
17284;DHT22;8760;52.248;20.952;2023-03-01T10:24:43;12.20;99.90
17284;DHT22;8760;52.248;20.952;2023-03-01T10:27:17;12.30;99.90
17284;DHT22;8760;52.248;20.952;2023-03-01T10:29:49;12.00;99.90
17284;DHT22;8760;52.248;20.952;2023-03-01T10:32:18;12.90;99.90
17284;DHT22;8760;52.248;20.952;2023-03-01T10:34:47;12.90;99.90
17284;DHT22;8760;52.248;20.952;2023-03-01T10:37:17;12.90;99.90
17284;DHT22;8760;52.248;20.952;2023-03-01T10:39:56;13.00;99.90
17284;DHT22;8760;52.248;20.952;2023-03-01T10:42:27;13.10;99.90
17284;DHT22;8760;52.248;20.952;2023-03-01T10:44:58;13.80;99.90
17284;DHT22;8760;52.248;20.952;2023-03-01T10:47:36;14.50;99.90
17284;DHT22;8760;52.248;20.952;2023-03-01T10:50:05;14.10;99.90
17284;DHT22;8760;52.248;20.952;2023-03-01T10:52:35;14.00;99.90
17284;DHT22;8760;52.248;20.952;2023-03-01T10:58:06;14.30;99.90
17284;DHT22;8760;52.248;20.952;2023-03-01T11:00:45;14.90;99.90
17284;DHT22;8760;52.248;20.952;2023-03-01T11:03:15;14.70;99.90
17284;DHT22;8760;52.248;20.952;2023-03-01T11:05:59;14.80;99.90
17284;DHT22;8760;52.248;20.952;2023-03-01T11:08:33;14.80;99.90
17284;DHT22;8760;52.248;20.952;2023-03-01T11:11:18;15.20;99.90
17284;DHT22;8760;52.248;20.952;2023-03-01T11:13:50;15.30;99.90
17284;DHT22;8760;52.248;20.952;2023-03-01T11:16:31;15.40;99.90
17284;DHT22;8760;52.248;20.952;2023-03-01T11:19:03;15.40;99.90
17284;DHT22;8760;52.248;20.952;2023-03-01T11:21:32;14.30;99.90
17284;DHT22;8760;52.248;20.952;2023-03-01T11:24:03;14.20;99.90
17284;DHT22;8760;52.248;20.952;2023-03-01T11:26:36;13.90;99.90
17284;DHT22;8760;52.248;20.952;2023-03-01T11:29:15;14.00;99.90
17284;DHT22;8760;52.248;20.952;2023-03-01T11:31:44;14.20;99.90
17284;DHT22;8760;52.248;20.952;2023-03-01T11:34:14;14.00;99.90
17284;DHT22;8760;52.248;20.952;2023-03-01T11:36:49;14.90;99.90
17284;DHT22;8760;52.248;20.952;2023-03-01T11:39:24;14.40;97.90
17284;DHT22;8760;52.248;20.952;2023-03-01T11:42:02;13.70;97.60
17284;DHT22;8760;52.248;20.952;2023-03-01T11:44:34;13.10;97.50
17284;DHT22;8760;52.248;20.952;2023-03-01T11:47:26;12.90;99.40
17284;DHT22;8760;52.248;20.952;2023-03-01T11:50:16;13.20;99.90
17284;DHT22;8760;52.248;20.952;2023-03-01T11:52:58;13.30;99.90
17284;DHT22;8760;52.248;20.952;2023-03-01T11:55:42;13.10;99.90
17284;DHT22;8760;52.248;20.952;2023-03-01T11:58:27;12.80;99.00
17284;DHT22;8760;52.248;20.952;2023-03-01T12:01:06;13.20;99.90
17284;DHT22;8760;52.248;20.952;2023-03-01T12:03:50;13.70;99.90
17284;DHT22;8760;52.248;20.952;2023-03-01T12:06:28;13.60;99.90
17284;DHT22;8760;52.248;20.952;2023-03-01T12:09:14;14.20;99.90
17284;DHT22;8760;52.248;20.952;2023-03-01T12:12:03;14.60;99.90
17284;DHT22;8760;52.248;20.952;2023-03-01T12:14:51;14.50;99.70
17284;DHT22;8760;52.248;20.952;2023-03-01T12:17:45;14.50;97.80
17284;DHT22;8760;52.248;20.952;2023-03-01T12:20:28;14.60;97.80
17284;DHT22;8760;52.248;20.952;2023-03-01T12:26:11;15.20;97.50
17284;DHT22;8760;52.248;20.952;2023-03-01T12:28:55;15.10;94.70
17284;DHT22;8760;52.248;20.952;2023-03-01T12:31:48;15.00;94.70
17284;DHT22;8760;52.248;20.952;2023-03-01T12:37:23;12.80;93.20
17284;DHT22;8760;52.248;20.952;2023-03-01T12:43:01;12.10;96.20
17284;DHT22;8760;52.248;20.952;2023-03-01T12:45:49;12.40;99.40
17284;DHT22;8760;52.248;20.952;2023-03-01T12:48:30;12.90;99.90
17284;DHT22;8760;52.248;20.952;2023-03-01T12:51:02;13.20;99.90
17284;DHT22;8760;52.248;20.952;2023-03-01T12:53:34;13.10;99.90
17284;DHT22;8760;52.248;20.952;2023-03-01T12:56:05;13.00;99.90
17284;DHT22;8760;52.248;20.952;2023-03-01T12:58:35;14.10;99.90
17284;DHT22;8760;52.248;20.952;2023-03-01T13:01:19;15.10;99.90
17284;DHT22;8760;52.248;20.952;2023-03-01T13:04:02;15.70;99.90
17284;DHT22;8760;52.248;20.952;2023-03-01T13:06:41;15.30;99.90
17284;DHT22;8760;52.248;20.952;2023-03-01T13:09:18;15.50;98.10
17284;DHT22;8760;52.248;20.952;2023-03-01T13:11:46;15.30;96.40
17284;DHT22;8760;52.248;20.952;2023-03-01T13:14:37;15.00;93.20
17284;DHT22;8760;52.248;20.952;2023-03-01T13:17:31;14.70;92.30
17284;DHT22;8760;52.248;20.952;2023-03-01T13:19:58;14.10;92.90
17284;DHT22;8760;52.248;20.952;2023-03-01T13:22:28;13.30;92.60
17284;DHT22;8760;52.248;20.952;2023-03-01T13:25:02;12.50;95.30
17284;DHT22;8760;52.248;20.952;2023-03-01T13:27:30;11.90;99.90
17284;DHT22;8760;52.248;20.952;2023-03-01T13:29:59;11.80;99.90
17284;DHT22;8760;52.248;20.952;2023-03-01T13:32:33;11.80;99.90
17284;DHT22;8760;52.248;20.952;2023-03-01T13:35:42;12.10;99.90
17284;DHT22;8760;52.248;20.952;2023-03-01T13:38:37;12.00;99.90
17284;DHT22;8760;52.248;20.952;2023-03-01T13:41:05;11.90;99.90
17284;DHT22;8760;52.248;20.952;2023-03-01T13:43:35;11.80;99.90
17284;DHT22;8760;52.248;20.952;2023-03-01T13:46:09;11.40;99.90
17284;DHT22;8760;52.248;20.952;2023-03-01T13:48:38;11.10;99.90
17284;DHT22;8760;52.248;20.952;2023-03-01T13:51:09;10.70;99.90
17284;DHT22;8760;52.248;20.952;2023-03-01T13:53:39;10.40;99.90
17284;DHT22;8760;52.248;20.952;2023-03-01T13:56:10;9.90;99.90
17284;DHT22;8760;52.248;20.952;2023-03-01T13:58:50;9.60;99.90
17284;DHT22;8760;52.248;20.952;2023-03-01T14:01:24;9.70;99.90
17284;DHT22;8760;52.248;20.952;2023-03-01T14:03:53;9.70;99.90
17284;DHT22;8760;52.248;20.952;2023-03-01T14:06:22;9.60;99.90
17284;DHT22;8760;52.248;20.952;2023-03-01T14:08:51;9.60;99.90
17284;DHT22;8760;52.248;20.952;2023-03-01T14:14:46;10.20;99.90
17284;DHT22;8760;52.248;20.952;2023-03-01T14:20:16;10.40;99.90
17284;DHT22;8760;52.248;20.952;2023-03-01T14:22:44;10.70;99.90
17284;DHT22;8760;52.248;20.952;2023-03-01T14:25:20;10.40;99.90
17284;DHT22;8760;52.248;20.952;2023-03-01T14:27:59;10.20;99.90
17284;DHT22;8760;52.248;20.952;2023-03-01T14:30:31;9.90;99.90
17284;DHT22;8760;52.248;20.952;2023-03-01T14:33:00;9.70;99.90
17284;DHT22;8760;52.248;20.952;2023-03-01T14:35:30;9.40;99.90
17284;DHT22;8760;52.248;20.952;2023-03-01T14:37:58;9.30;99.90
17284;DHT22;8760;52.248;20.952;2023-03-01T14:40:27;9.60;99.90
17284;DHT22;8760;52.248;20.952;2023-03-01T14:42:56;10.30;99.90
17284;DHT22;8760;52.248;20.952;2023-03-01T14:45:26;10.70;99.90
17284;DHT22;8760;52.248;20.952;2023-03-01T14:47:54;10.90;99.90
17284;DHT22;8760;52.248;20.952;2023-03-01T14:50:25;10.60;99.90
17284;DHT22;8760;52.248;20.952;2023-03-01T14:52:55;10.20;99.90
17284;DHT22;8760;52.248;20.952;2023-03-01T14:55:27;9.80;99.90
17284;DHT22;8760;52.248;20.952;2023-03-01T14:57:56;9.40;99.90
17284;DHT22;8760;52.248;20.952;2023-03-01T15:00:26;9.10;99.90
17284;DHT22;8760;52.248;20.952;2023-03-01T15:02:55;8.80;1.00
17284;DHT22;8760;52.248;20.952;2023-03-01T15:05:26;8.40;1.00
17284;DHT22;8760;52.248;20.952;2023-03-01T15:07:57;8.30;1.00
17284;DHT22;8760;52.248;20.952;2023-03-01T15:10:27;8.70;1.00
17284;DHT22;8760;52.248;20.952;2023-03-01T15:12:54;9.30;1.00
17284;DHT22;8760;52.248;20.952;2023-03-01T15:15:34;9.60;1.00
17284;DHT22;8760;52.248;20.952;2023-03-01T15:18:03;9.90;1.00
17284;DHT22;8760;52.248;20.952;2023-03-01T15:20:35;10.10;1.00
17284;DHT22;8760;52.248;20.952;2023-03-01T15:23:03;10.30;99.90
17284;DHT22;8760;52.248;20.952;2023-03-01T15:25:32;10.00;99.90
17284;DHT22;8760;52.248;20.952;2023-03-01T15:28:01;9.80;99.90
17284;DHT22;8760;52.248;20.952;2023-03-01T15:30:31;9.40;99.90
17284;DHT22;8760;52.248;20.952;2023-03-01T15:33:30;9.00;99.90
17284;DHT22;8760;52.248;20.952;2023-03-01T15:35:59;8.50;1.00
17284;DHT22;8760;52.248;20.952;2023-03-01T15:41:24;7.90;1.00
17284;DHT22;8760;52.248;20.952;2023-03-01T15:43:52;7.70;1.00
17284;DHT22;8760;52.248;20.952;2023-03-01T15:46:26;7.50;1.00
17284;DHT22;8760;52.248;20.952;2023-03-01T15:48:56;7.30;96.80
17284;DHT22;8760;52.248;20.952;2023-03-01T15:51:31;7.20;99.90
17284;DHT22;8760;52.248;20.952;2023-03-01T15:54:02;7.20;99.90
17284;DHT22;8760;52.248;20.952;2023-03-01T15:56:29;7.10;99.90
17284;DHT22;8760;52.248;20.952;2023-03-01T15:59:01;7.00;99.90
17284;DHT22;8760;52.248;20.952;2023-03-01T16:01:29;7.00;99.90
17284;DHT22;8760;52.248;20.952;2023-03-01T16:03:56;7.00;1.00
17284;DHT22;8760;52.248;20.952;2023-03-01T16:06:24;6.90;1.00
17284;DHT22;8760;52.248;20.952;2023-03-01T16:08:51;6.80;1.00
17284;DHT22;8760;52.248;20.952;2023-03-01T16:11:20;6.80;1.00
17284;DHT22;8760;52.248;20.952;2023-03-01T16:13:47;6.70;1.00
17284;DHT22;8760;52.248;20.952;2023-03-01T16:16:16;6.60;1.00
17284;DHT22;8760;52.248;20.952;2023-03-01T16:18:44;6.60;1.00
17284;DHT22;8760;52.248;20.952;2023-03-01T16:21:17;6.50;1.00
17284;DHT22;8760;52.248;20.952;2023-03-01T16:23:45;6.40;1.00